createdAt,value
2023-06-06T00:00:51.797Z,94.24
2023-06-06T00:06:11.802Z,93.25
2023-06-06T00:11:13.733Z,92.04
2023-06-06T00:16:18.064Z,89.10
2023-06-06T00:21:22.394Z,88.50
2023-06-06T00:26:24.374Z,91.01
2023-06-06T00:31:27.787Z,92.27
2023-06-06T00:36:29.795Z,91.79
2023-06-06T00:41:31.795Z,91.90
2023-06-06T00:46:35.312Z,91.98
2023-06-06T00:51:38.038Z,92.47
2023-06-06T00:56:42.216Z,92.61
2023-06-06T01:01:50.014Z,93.53
2023-06-06T01:06:53.129Z,93.32
2023-06-06T01:12:04.165Z,94.43
2023-06-06T01:17:09.701Z,94.20
2023-06-06T01:22:14.250Z,95.16
2023-06-06T01:27:16.535Z,96.74
2023-06-06T01:32:22.850Z,97.87
2023-06-06T01:37:36.365Z,97.12
2023-06-06T01:42:43.906Z,97.01
2023-06-06T01:47:46.448Z,97.88
2023-06-06T01:52:53.639Z,99.04
2023-06-06T01:57:57.151Z,99.34
2023-06-06T02:02:59.163Z,99.95
2023-06-06T02:08:02.607Z,100.00
2023-06-06T02:13:04.735Z,100.00
2023-06-06T02:18:07.000Z,100.00
2023-06-06T02:23:10.871Z,100.00
2023-06-06T02:28:15.579Z,100.00
2023-06-06T02:33:17.868Z,100.00
2023-06-06T02:38:21.710Z,100.00
2023-06-06T02:43:23.712Z,100.00
2023-06-06T02:48:25.788Z,100.00
2023-06-06T02:53:32.399Z,100.00
2023-06-06T02:58:34.610Z,100.00
2023-06-06T03:03:36.759Z,100.00
2023-06-06T03:08:41.927Z,100.00
2023-06-06T03:13:46.275Z,100.00
2023-06-06T03:18:49.097Z,100.00
2023-06-06T03:23:52.498Z,99.61
2023-06-06T03:28:54.902Z,100.00
2023-06-06T03:33:57.530Z,99.52
2023-06-06T03:39:01.104Z,99.28
2023-06-06T03:44:03.166Z,99.82
2023-06-06T03:49:05.207Z,100.00
2023-06-06T03:54:08.543Z,99.51
2023-06-06T03:59:14.317Z,97.97
2023-06-06T04:04:17.462Z,98.34
2023-06-06T04:09:20.956Z,96.97
2023-06-06T04:14:24.613Z,97.13
2023-06-06T04:19:26.889Z,97.93
2023-06-06T04:24:30.218Z,97.53
2023-06-06T04:29:35.503Z,96.30
2023-06-06T04:34:40.966Z,93.69
2023-06-06T04:39:44.633Z,92.78
2023-06-06T04:44:47.252Z,89.53
2023-06-06T04:49:49.337Z,88.44
2023-06-06T04:54:53.188Z,88.96
2023-06-06T04:59:55.358Z,84.52
2023-06-06T05:04:58.189Z,83.03
2023-06-06T05:10:01.605Z,84.16
2023-06-06T05:15:04.216Z,83.87
2023-06-06T05:20:11.771Z,84.52
2023-06-06T05:25:15.219Z,85.60
2023-06-06T05:30:17.302Z,84.07
2023-06-06T05:35:19.260Z,83.87
2023-06-06T05:40:22.609Z,84.90
2023-06-06T05:45:24.677Z,84.18
2023-06-06T05:50:26.709Z,84.02
2023-06-06T05:55:31.619Z,82.71
2023-06-06T06:00:35.170Z,82.66
2023-06-06T06:05:37.633Z,81.23
2023-06-06T06:10:40.976Z,80.37
2023-06-06T06:15:42.991Z,79.44
2023-06-06T06:20:46.232Z,78.59
2023-06-06T06:25:49.621Z,78.00
2023-06-06T06:30:52.467Z,77.64
2023-06-06T06:35:55.037Z,76.13
2023-06-06T06:40:59.671Z,75.06
2023-06-06T06:46:05.165Z,74.33
2023-06-06T06:51:08.055Z,73.35
2023-06-06T06:56:11.762Z,72.40
2023-06-06T07:01:15.516Z,72.18
2023-06-06T07:06:19.319Z,75.79
2023-06-06T07:11:23.191Z,74.07
2023-06-06T07:16:26.726Z,73.37
2023-06-06T07:21:28.914Z,72.63
2023-06-06T07:26:32.317Z,72.38
2023-06-06T07:31:34.666Z,70.91
2023-06-06T07:36:39.543Z,72.21
2023-06-06T07:41:42.957Z,69.42
2023-06-06T07:46:45.087Z,70.58
2023-06-06T07:51:47.400Z,67.11
2023-06-06T07:56:50.749Z,65.38
2023-06-06T08:01:53.322Z,68.44
2023-06-06T08:06:55.531Z,70.25
2023-06-06T08:11:58.925Z,68.72
2023-06-06T08:17:01.467Z,72.39
2023-06-06T08:22:04.107Z,72.66
2023-06-06T08:27:07.926Z,69.42
2023-06-06T08:32:10.443Z,70.81
2023-06-06T08:37:12.510Z,68.82
2023-06-06T08:42:19.539Z,69.85
2023-06-06T08:47:25.103Z,70.80
2023-06-06T08:52:28.886Z,70.05
2023-06-06T08:57:33.838Z,68.17
2023-06-06T09:02:36.098Z,67.73
2023-06-06T09:07:39.057Z,67.93
2023-06-06T09:12:43.200Z,68.68
2023-06-06T09:17:47.242Z,70.84
2023-06-06T09:22:50.318Z,68.86
2023-06-06T09:28:01.142Z,67.18
2023-06-06T09:33:05.486Z,65.36
2023-06-06T09:38:09.840Z,66.18
2023-06-06T09:43:13.760Z,62.95
2023-06-06T09:48:21.588Z,63.20
2023-06-06T09:53:24.824Z,61.08
2023-06-06T09:58:31.137Z,61.32
2023-06-06T10:03:37.886Z,60.73
2023-06-06T10:08:41.100Z,62.84
2023-06-06T10:13:44.710Z,60.84
2023-06-06T10:18:49.166Z,59.13
2023-06-06T10:23:51.416Z,59.93
2023-06-06T10:29:02.667Z,57.70
2023-06-06T10:34:09.262Z,57.59
2023-06-06T10:39:19.620Z,57.56
2023-06-06T10:44:26.931Z,57.71
2023-06-06T10:49:28.948Z,57.49
2023-06-06T10:54:35.283Z,56.17
2023-06-06T10:59:38.775Z,58.49
2023-06-06T11:04:40.956Z,60.44
2023-06-06T11:09:43.538Z,60.49
2023-06-06T11:15:00.084Z,60.48
2023-06-06T11:20:03.190Z,59.25
2023-06-06T11:25:08.829Z,61.71
2023-06-06T11:30:15.829Z,63.78
2023-06-06T11:35:19.386Z,66.96
2023-06-06T11:40:21.545Z,68.44
2023-06-06T11:45:25.365Z,65.92
2023-06-06T11:50:28.099Z,70.75
2023-06-06T11:55:37.217Z,71.10
2023-06-06T12:00:40.858Z,71.07
2023-06-06T12:05:43.152Z,71.15
2023-06-06T12:10:45.228Z,67.83
2023-06-06T12:15:49.352Z,64.78
2023-06-06T12:20:51.936Z,64.49
2023-06-06T12:26:03.285Z,63.11
2023-06-06T12:31:19.021Z,61.39
2023-06-06T12:36:22.981Z,61.22
2023-06-06T12:41:36.595Z,56.75
2023-06-06T12:46:42.181Z,58.52
2023-06-06T12:51:44.340Z,56.49
2023-06-06T12:56:46.741Z,57.68
2023-06-06T13:01:50.628Z,57.10
2023-06-06T13:06:52.721Z,56.49
2023-06-06T13:11:54.822Z,60.04
2023-06-06T13:17:11.861Z,59.07
2023-06-06T13:22:14.966Z,59.50
2023-06-06T13:27:16.991Z,60.78
2023-06-06T13:32:20.611Z,58.38
2023-06-06T13:37:22.988Z,60.15
2023-06-06T13:42:25.206Z,61.28
2023-06-06T13:47:28.588Z,62.13
2023-06-06T13:52:31.806Z,61.84
2023-06-06T13:57:41.066Z,63.84
2023-06-06T14:02:44.839Z,65.15
2023-06-06T14:07:47.333Z,63.93
2023-06-06T14:12:50.114Z,65.36
2023-06-06T14:17:56.592Z,64.44
2023-06-06T14:22:58.992Z,66.61
2023-06-06T14:28:01.068Z,66.65
2023-06-06T14:33:04.735Z,65.62
2023-06-06T14:38:06.770Z,65.65
2023-06-06T14:43:09.318Z,66.79
2023-06-06T14:48:12.891Z,67.65
2023-06-06T14:53:16.898Z,68.56
2023-06-06T14:58:20.173Z,70.30
2023-06-06T15:03:23.583Z,70.85
2023-06-06T15:08:25.712Z,71.08
2023-06-06T15:13:27.739Z,72.96
2023-06-06T15:18:31.252Z,74.09
2023-06-06T15:23:33.392Z,74.21
2023-06-06T15:28:35.537Z,74.26
2023-06-06T15:33:38.983Z,75.88
2023-06-06T15:38:41.115Z,75.64
2023-06-06T15:43:43.182Z,75.76
2023-06-06T15:48:46.553Z,75.83
2023-06-06T15:53:48.679Z,76.48
2023-06-06T15:58:57.101Z,76.85
2023-06-06T16:04:00.529Z,77.70
2023-06-06T16:09:02.598Z,76.41
2023-06-06T16:14:05.457Z,77.15
2023-06-06T16:19:10.385Z,78.08
2023-06-06T16:24:12.541Z,78.69
2023-06-06T16:29:14.601Z,78.90
2023-06-06T16:34:18.035Z,79.23
2023-06-06T16:39:21.254Z,79.77
2023-06-06T16:44:23.353Z,80.03
2023-06-06T16:49:26.712Z,81.83
2023-06-06T16:54:29.293Z,82.68
2023-06-06T16:59:34.118Z,83.90
2023-06-06T17:04:38.552Z,84.44
2023-06-06T17:09:41.544Z,85.08
2023-06-06T17:14:44.098Z,84.97
2023-06-06T17:19:48.496Z,85.56
2023-06-06T17:24:50.900Z,85.67
2023-06-06T17:29:53.654Z,85.90
2023-06-06T17:34:57.035Z,84.98
2023-06-06T17:39:59.261Z,85.85
2023-06-06T17:45:01.667Z,86.75
2023-06-06T17:50:06.483Z,87.04
2023-06-06T17:55:08.665Z,87.39
2023-06-06T18:00:12.786Z,88.11
2023-06-06T18:05:31.967Z,90.51
2023-06-06T18:10:37.211Z,93.93
2023-06-06T18:15:39.416Z,96.58
2023-06-06T18:20:43.117Z,97.67
2023-06-06T18:25:45.888Z,98.66
2023-06-06T18:30:47.988Z,100.00
2023-06-06T18:35:51.816Z,100.00
2023-06-06T18:40:54.096Z,100.00
2023-06-06T18:45:56.856Z,100.00
2023-06-06T18:51:00.650Z,100.00
2023-06-06T18:56:02.849Z,100.00
2023-06-06T19:01:05.032Z,100.00
2023-06-06T19:06:08.542Z,100.00
2023-06-06T19:11:10.981Z,100.00
2023-06-06T19:16:13.078Z,100.00
2023-06-06T19:21:18.752Z,100.00
2023-06-06T19:26:20.870Z,100.00
2023-06-06T19:31:23.072Z,100.00
2023-06-06T19:36:27.055Z,100.00
2023-06-06T19:41:29.350Z,100.00
2023-06-06T19:46:32.668Z,100.00
2023-06-06T19:51:36.918Z,100.00
2023-06-06T19:56:39.870Z,100.00
2023-06-06T20:01:42.012Z,100.00
2023-06-06T20:06:46.473Z,100.00
2023-06-06T20:11:48.485Z,100.00
2023-06-06T20:16:52.482Z,100.00
2023-06-06T20:21:58.560Z,100.00
2023-06-06T20:27:03.018Z,100.00
2023-06-06T20:32:06.274Z,100.00
2023-06-06T20:37:12.105Z,100.00
2023-06-06T20:42:14.223Z,100.00
2023-06-06T20:47:16.488Z,100.00
2023-06-06T20:52:20.677Z,100.00
2023-06-06T20:57:22.694Z,100.00
2023-06-06T21:02:25.192Z,100.00
2023-06-06T21:07:29.331Z,100.00
2023-06-06T21:12:31.955Z,100.00
2023-06-06T21:17:34.019Z,100.00
2023-06-06T21:22:37.535Z,100.00
2023-06-06T21:27:39.616Z,100.00
2023-06-06T21:32:41.817Z,100.00
2023-06-06T21:37:45.336Z,100.00
2023-06-06T21:42:50.707Z,100.00
2023-06-06T21:47:52.840Z,100.00
2023-06-06T21:52:56.139Z,100.00
2023-06-06T21:57:58.166Z,100.00
2023-06-06T22:03:00.317Z,100.00
2023-06-06T22:08:04.103Z,100.00
2023-06-06T22:13:06.337Z,100.00
2023-06-06T22:18:09.236Z,100.00
2023-06-06T22:23:12.682Z,100.00
2023-06-06T22:28:14.750Z,100.00
2023-06-06T22:33:16.778Z,100.00
2023-06-06T22:38:20.202Z,100.00
2023-06-06T22:43:22.284Z,100.00
2023-06-06T22:48:24.310Z,100.00
2023-06-06T22:53:27.815Z,100.00
2023-06-06T22:58:29.806Z,100.00
2023-06-06T23:03:31.966Z,100.00
2023-06-06T23:08:35.523Z,100.00
2023-06-06T23:13:38.051Z,100.00
2023-06-06T23:18:40.140Z,100.00
2023-06-06T23:23:43.523Z,100.00
2023-06-06T23:28:45.630Z,100.00
2023-06-06T23:33:47.998Z,100.00
2023-06-06T23:38:51.514Z,100.00
2023-06-06T23:43:53.574Z,100.00
2023-06-06T23:48:55.613Z,100.00
2023-06-06T23:53:58.981Z,100.00
2023-06-06T23:59:00.991Z,100.00
